KFR22 NZAA-NZCH
Flight info
| Callsign | KFR22 |
|---|---|
| Flight time | 1h 7m |
| Altitude | 38000 |
| Route | IGBAT H384 NP H252 NS Y288 IPRAK |
| Aircraft | A20N/M-SDE2E3FGHIRWXY/LB1 |
Departure
| Time | 2026-05-06 20:01 |
|---|---|
| Airport | Auckland International Airport (NZAA) |
Arrival
| Time | 2026-05-06 21:09 |
|---|---|
| Airport | Christchurch International Airport (NZCH) |
| Time | Latitude | Longitude | Altitude | Speed | Heading |
|---|---|---|---|---|---|
| 2026-05-06 19:26 | -37.00759 | 174.78892 | 25 ft | 0 kts | 71° |
| 2026-05-06 19:49 | -37.00760 | 174.78888 | 25 ft | 1 kts | 71° |
| 2026-05-06 19:49 | -37.00762 | 174.78881 | 28 ft | 1 kts | 71° |
| 2026-05-06 19:50 | -37.00764 | 174.78874 | 26 ft | 1 kts | 71° |
| 2026-05-06 19:50 | -37.00766 | 174.78867 | 30 ft | 1 kts | 79° |
| 2026-05-06 19:50 | -37.00767 | 174.78858 | 29 ft | 1 kts | 94° |
| 2026-05-06 19:51 | -37.00767 | 174.78848 | 28 ft | 1 kts | 109° |
| 2026-05-06 19:51 | -37.00764 | 174.78839 | 29 ft | 1 kts | 125° |
| 2026-05-06 19:51 | -37.00759 | 174.78831 | 29 ft | 1 kts | 140° |
| 2026-05-06 19:51 | -37.00753 | 174.78825 | 28 ft | 1 kts | 156° |
| 2026-05-06 19:52 | -37.00751 | 174.78824 | 27 ft | 0 kts | 160° |
| 2026-05-06 19:55 | -37.00764 | 174.78830 | 27 ft | 4 kts | 160° |
| 2026-05-06 19:55 | -37.00806 | 174.78848 | 25 ft | 8 kts | 160° |
| 2026-05-06 19:56 | -37.00809 | 174.78850 | 25 ft | 1 kts | 160° |
| 2026-05-06 19:56 | -37.00832 | 174.78860 | 26 ft | 6 kts | 161° |
| 2026-05-06 19:56 | -37.00883 | 174.78877 | 26 ft | 9 kts | 164° |
| 2026-05-06 19:56 | -37.00946 | 174.78853 | 25 ft | 11 kts | 234° |
| 2026-05-06 19:57 | -37.00978 | 174.78747 | 25 ft | 15 kts | 251° |
| 2026-05-06 19:57 | -37.01014 | 174.78617 | 27 ft | 17 kts | 251° |
| 2026-05-06 19:57 | -37.01056 | 174.78461 | 28 ft | 20 kts | 251° |
| 2026-05-06 19:57 | -37.01106 | 174.78284 | 27 ft | 23 kts | 251° |
| 2026-05-06 19:58 | -37.01161 | 174.78088 | 25 ft | 25 kts | 251° |
| 2026-05-06 19:58 | -37.01219 | 174.77878 | 25 ft | 27 kts | 251° |
| 2026-05-06 19:58 | -37.01282 | 174.77648 | 25 ft | 29 kts | 251° |
| 2026-05-06 19:58 | -37.01348 | 174.77407 | 26 ft | 30 kts | 251° |
| 2026-05-06 19:59 | -37.01408 | 174.77189 | 26 ft | 18 kts | 250° |
| 2026-05-06 19:59 | -37.01456 | 174.77110 | 25 ft | 11 kts | 202° |
| 2026-05-06 19:59 | -37.01540 | 174.77087 | 27 ft | 14 kts | 191° |
| 2026-05-06 19:59 | -37.01612 | 174.77096 | 30 ft | 9 kts | 140° |
| 2026-05-06 20:00 | -37.01615 | 174.77141 | 25 ft | 1 kts | 67° |
| 2026-05-06 20:00 | -37.01615 | 174.77142 | 25 ft | 0 kts | 67° |
| 2026-05-06 20:00 | -37.01585 | 174.77245 | 27 ft | 41 kts | 71° |
| 2026-05-06 20:00 | -37.01420 | 174.77841 | 27 ft | 100 kts | 71° |
| 2026-05-06 20:01 | -37.01140 | 174.78858 | 28 ft | 143 kts | 70° |
| 2026-05-06 20:01 | -37.00785 | 174.80144 | 140 ft | 166 kts | 70° |
| 2026-05-06 20:01 | -37.00399 | 174.81531 | 589 ft | 169 kts | 69° |
| 2026-05-06 20:01 | -37.00027 | 174.82863 | 1359 ft | 153 kts | 68° |
| 2026-05-06 20:02 | -36.99707 | 174.84056 | 2138 ft | 142 kts | 65° |
| 2026-05-06 20:02 | -36.99359 | 174.85298 | 2431 ft | 160 kts | 65° |
| 2026-05-06 20:02 | -36.98968 | 174.86678 | 2693 ft | 180 kts | 66° |
| 2026-05-06 20:02 | -36.98531 | 174.88241 | 3006 ft | 200 kts | 66° |
| 2026-05-06 20:03 | -36.98281 | 174.90037 | 3583 ft | 219 kts | 93° |
| 2026-05-06 20:03 | -36.98890 | 174.91814 | 4533 ft | 230 kts | 127° |
| 2026-05-06 20:03 | -37.00213 | 174.92986 | 5421 ft | 241 kts | 157° |
| 2026-05-06 20:03 | -37.01817 | 174.93654 | 6304 ft | 246 kts | 169° |
| 2026-05-06 20:04 | -37.03495 | 174.93554 | 7138 ft | 247 kts | 201° |
| 2026-05-06 20:04 | -37.04932 | 174.92416 | 7933 ft | 245 kts | 233° |
| 2026-05-06 20:04 | -37.05728 | 174.90584 | 8744 ft | 241 kts | 256° |
| 2026-05-06 20:04 | -37.06234 | 174.88515 | 9312 ft | 259 kts | 259° |
| 2026-05-06 20:05 | -37.06748 | 174.86253 | 9758 ft | 281 kts | 258° |
| 2026-05-06 20:05 | -37.07336 | 174.83859 | 10450 ft | 291 kts | 256° |
| 2026-05-06 20:05 | -37.07987 | 174.81374 | 10954 ft | 311 kts | 255° |
| 2026-05-06 20:05 | -37.08707 | 174.78718 | 11269 ft | 334 kts | 254° |
| 2026-05-06 20:06 | -37.09482 | 174.75917 | 11888 ft | 343 kts | 254° |
| 2026-05-06 20:06 | -37.10268 | 174.73089 | 12751 ft | 345 kts | 254° |
| 2026-05-06 20:06 | -37.11060 | 174.70228 | 13580 ft | 349 kts | 254° |
| 2026-05-06 20:06 | -37.12113 | 174.67465 | 14354 ft | 358 kts | 237° |
| 2026-05-06 20:07 | -37.13890 | 174.65234 | 15062 ft | 367 kts | 217° |
| 2026-05-06 20:07 | -37.16182 | 174.63841 | 15773 ft | 376 kts | 198° |
| 2026-05-06 20:07 | -37.18795 | 174.63402 | 16470 ft | 383 kts | 182° |
| 2026-05-06 20:07 | -37.21486 | 174.63568 | 17177 ft | 388 kts | 177° |
| 2026-05-06 20:08 | -37.24194 | 174.63819 | 17876 ft | 391 kts | 178° |
| 2026-05-06 20:08 | -37.26898 | 174.63985 | 18564 ft | 395 kts | 180° |
| 2026-05-06 20:08 | -37.29662 | 174.64061 | 19158 ft | 398 kts | 181° |
| 2026-05-06 20:08 | -37.32465 | 174.64075 | 19750 ft | 401 kts | 182° |
| 2026-05-06 20:09 | -37.35232 | 174.64060 | 20330 ft | 405 kts | 182° |
| 2026-05-06 20:09 | -37.38073 | 174.64033 | 20910 ft | 408 kts | 182° |
| 2026-05-06 20:09 | -37.40943 | 174.64005 | 21479 ft | 412 kts | 182° |
| 2026-05-06 20:09 | -37.43786 | 174.63979 | 22039 ft | 416 kts | 182° |
| 2026-05-06 20:10 | -37.46696 | 174.63953 | 22602 ft | 419 kts | 182° |
| 2026-05-06 20:10 | -37.49639 | 174.63928 | 23141 ft | 423 kts | 182° |
| 2026-05-06 20:10 | -37.52603 | 174.63903 | 23702 ft | 427 kts | 182° |
| 2026-05-06 20:10 | -37.55584 | 174.63845 | 24195 ft | 429 kts | 185° |
| 2026-05-06 20:11 | -37.58518 | 174.63402 | 24713 ft | 428 kts | 193° |
| 2026-05-06 20:11 | -37.61424 | 174.62541 | 25201 ft | 429 kts | 196° |
| 2026-05-06 20:11 | -37.64333 | 174.61627 | 25678 ft | 431 kts | 196° |
| 2026-05-06 20:11 | -37.67256 | 174.60721 | 26157 ft | 433 kts | 196° |
| 2026-05-06 20:12 | -37.70193 | 174.59810 | 26622 ft | 435 kts | 196° |
| 2026-05-06 20:12 | -37.73144 | 174.58894 | 27085 ft | 437 kts | 196° |
| 2026-05-06 20:12 | -37.76108 | 174.57970 | 27511 ft | 439 kts | 196° |
| 2026-05-06 20:12 | -37.79053 | 174.57051 | 27947 ft | 440 kts | 196° |
| 2026-05-06 20:13 | -37.82042 | 174.56117 | 28362 ft | 442 kts | 196° |
| 2026-05-06 20:13 | -37.85035 | 174.55180 | 28775 ft | 444 kts | 196° |
| 2026-05-06 20:13 | -37.88049 | 174.54237 | 29163 ft | 446 kts | 196° |
| 2026-05-06 20:13 | -37.91072 | 174.53289 | 29536 ft | 448 kts | 196° |
| 2026-05-06 20:14 | -37.94070 | 174.52349 | 29905 ft | 450 kts | 196° |
| 2026-05-06 20:14 | -37.96125 | 174.51704 | 30155 ft | 451 kts | 196° |
| 2026-05-06 20:14 | -37.99305 | 174.50706 | 30492 ft | 453 kts | 196° |
| 2026-05-06 20:14 | -38.02388 | 174.49737 | 30822 ft | 455 kts | 196° |
| 2026-05-06 20:15 | -38.05464 | 174.48771 | 31142 ft | 456 kts | 196° |
| 2026-05-06 20:15 | -38.08525 | 174.47808 | 31463 ft | 458 kts | 196° |
| 2026-05-06 20:15 | -38.11620 | 174.46834 | 31864 ft | 457 kts | 196° |
| 2026-05-06 20:15 | -38.14698 | 174.45865 | 32294 ft | 455 kts | 197° |
| 2026-05-06 20:16 | -38.17780 | 174.44894 | 32711 ft | 454 kts | 197° |
| 2026-05-06 20:16 | -38.20839 | 174.43928 | 33123 ft | 452 kts | 197° |
| 2026-05-06 20:16 | -38.23859 | 174.42974 | 33514 ft | 451 kts | 197° |
| 2026-05-06 20:16 | -38.26910 | 174.42010 | 33900 ft | 450 kts | 197° |
| 2026-05-06 20:17 | -38.29950 | 174.41048 | 34290 ft | 448 kts | 197° |
| 2026-05-06 20:17 | -38.32968 | 174.40092 | 34610 ft | 447 kts | 197° |
| 2026-05-06 20:17 | -38.35988 | 174.39134 | 34907 ft | 446 kts | 197° |
| 2026-05-06 20:17 | -38.39001 | 174.38177 | 35186 ft | 446 kts | 197° |
| 2026-05-06 20:18 | -38.41972 | 174.37233 | 35450 ft | 445 kts | 197° |
| 2026-05-06 20:18 | -38.44984 | 174.36275 | 35717 ft | 444 kts | 197° |
| 2026-05-06 20:18 | -38.47986 | 174.35320 | 35974 ft | 444 kts | 197° |
| 2026-05-06 20:18 | -38.50992 | 174.34362 | 36225 ft | 444 kts | 197° |
| 2026-05-06 20:19 | -38.53957 | 174.33417 | 36459 ft | 443 kts | 197° |
| 2026-05-06 20:19 | -38.56955 | 174.32461 | 36704 ft | 442 kts | 197° |
| 2026-05-06 20:19 | -38.59957 | 174.31502 | 36949 ft | 442 kts | 197° |
| 2026-05-06 20:19 | -38.62954 | 174.30544 | 37175 ft | 441 kts | 197° |
| 2026-05-06 20:20 | -38.65896 | 174.29603 | 37389 ft | 441 kts | 197° |
| 2026-05-06 20:20 | -38.68870 | 174.28651 | 37598 ft | 441 kts | 197° |
| 2026-05-06 20:20 | -38.71858 | 174.27693 | 37809 ft | 440 kts | 197° |
| 2026-05-06 20:20 | -38.74835 | 174.26738 | 38008 ft | 440 kts | 197° |
| 2026-05-06 20:21 | -38.77775 | 174.25795 | 38195 ft | 440 kts | 197° |
| 2026-05-06 20:21 | -38.80751 | 174.24839 | 38290 ft | 440 kts | 197° |
| 2026-05-06 20:21 | -38.86670 | 174.22935 | 38293 ft | 438 kts | 197° |
| 2026-05-06 20:22 | -38.92606 | 174.21022 | 38291 ft | 439 kts | 197° |
| 2026-05-06 20:22 | -38.98532 | 174.19109 | 38294 ft | 439 kts | 197° |
| 2026-05-06 20:23 | -39.04382 | 174.16899 | 38289 ft | 438 kts | 201° |
| 2026-05-06 20:23 | -39.10152 | 174.14549 | 38287 ft | 437 kts | 201° |
| 2026-05-06 20:24 | -39.15967 | 174.12183 | 38275 ft | 437 kts | 201° |
| 2026-05-06 20:24 | -39.21779 | 174.09808 | 38269 ft | 437 kts | 201° |
| 2026-05-06 20:25 | -39.27537 | 174.07449 | 38272 ft | 436 kts | 202° |
| 2026-05-06 20:25 | -39.33348 | 174.05060 | 38269 ft | 437 kts | 201° |
| 2026-05-06 20:26 | -39.39114 | 174.02687 | 38267 ft | 437 kts | 201° |
| 2026-05-06 20:26 | -39.44916 | 174.00297 | 38256 ft | 437 kts | 201° |
| 2026-05-06 20:27 | -39.50718 | 173.97903 | 38253 ft | 437 kts | 201° |
| 2026-05-06 20:27 | -39.56521 | 173.95504 | 38249 ft | 438 kts | 201° |
| 2026-05-06 20:28 | -39.62331 | 173.93099 | 38248 ft | 438 kts | 201° |
| 2026-05-06 20:28 | -39.68108 | 173.90702 | 38243 ft | 439 kts | 201° |
| 2026-05-06 20:29 | -39.73935 | 173.88280 | 38250 ft | 439 kts | 201° |
| 2026-05-06 20:29 | -39.79765 | 173.85853 | 38251 ft | 440 kts | 201° |
| 2026-05-06 20:30 | -39.88517 | 173.82202 | 38253 ft | 441 kts | 201° |
| 2026-05-06 20:31 | -39.94360 | 173.79759 | 38252 ft | 441 kts | 201° |
| 2026-05-06 20:31 | -40.00213 | 173.77308 | 38252 ft | 441 kts | 201° |
| 2026-05-06 20:32 | -40.06038 | 173.74865 | 38254 ft | 442 kts | 201° |
| 2026-05-06 20:32 | -40.11906 | 173.72398 | 38254 ft | 442 kts | 202° |
| 2026-05-06 20:33 | -40.17725 | 173.69948 | 38251 ft | 442 kts | 202° |
| 2026-05-06 20:33 | -40.23597 | 173.67471 | 38248 ft | 442 kts | 202° |
| 2026-05-06 20:34 | -40.29304 | 173.65060 | 38241 ft | 442 kts | 202° |
| 2026-05-06 20:34 | -40.35159 | 173.62581 | 38239 ft | 442 kts | 202° |
| 2026-05-06 20:35 | -40.40980 | 173.60113 | 38236 ft | 442 kts | 202° |
| 2026-05-06 20:35 | -40.46851 | 173.57619 | 38233 ft | 442 kts | 202° |
| 2026-05-06 20:36 | -40.52707 | 173.55126 | 38231 ft | 442 kts | 202° |
| 2026-05-06 20:36 | -40.58534 | 173.52642 | 38233 ft | 442 kts | 202° |
| 2026-05-06 20:37 | -40.64395 | 173.50138 | 38237 ft | 442 kts | 202° |
| 2026-05-06 20:37 | -40.69271 | 173.48052 | 38235 ft | 442 kts | 202° |
| 2026-05-06 20:38 | -40.76080 | 173.45134 | 38229 ft | 442 kts | 202° |
| 2026-05-06 20:38 | -40.80947 | 173.43044 | 38238 ft | 442 kts | 202° |
| 2026-05-06 20:39 | -40.86803 | 173.40525 | 38219 ft | 442 kts | 202° |
| 2026-05-06 20:39 | -40.92663 | 173.38000 | 38224 ft | 442 kts | 202° |
| 2026-05-06 20:40 | -40.98524 | 173.35469 | 38224 ft | 442 kts | 202° |
| 2026-05-06 20:40 | -41.04342 | 173.32953 | 38222 ft | 442 kts | 202° |
| 2026-05-06 20:41 | -41.10199 | 173.30414 | 38219 ft | 442 kts | 202° |
| 2026-05-06 20:41 | -41.16044 | 173.27877 | 38221 ft | 442 kts | 202° |
| 2026-05-06 20:42 | -41.21877 | 173.25340 | 38217 ft | 442 kts | 203° |
| 2026-05-06 20:42 | -41.27726 | 173.22791 | 38218 ft | 442 kts | 203° |
| 2026-05-06 20:43 | -41.33577 | 173.20314 | 38219 ft | 443 kts | 201° |
| 2026-05-06 20:43 | -41.39518 | 173.18087 | 38219 ft | 444 kts | 201° |
| 2026-05-06 20:44 | -41.45463 | 173.15847 | 38220 ft | 444 kts | 201° |
| 2026-05-06 20:44 | -41.51418 | 173.13565 | 38210 ft | 442 kts | 201° |
| 2026-05-06 20:45 | -41.57301 | 173.11298 | 38216 ft | 443 kts | 201° |
| 2026-05-06 20:45 | -41.63244 | 173.09003 | 37751 ft | 444 kts | 201° |
| 2026-05-06 20:45 | -41.66220 | 173.07851 | 36996 ft | 448 kts | 201° |
| 2026-05-06 20:46 | -41.69258 | 173.06672 | 35946 ft | 457 kts | 201° |
| 2026-05-06 20:46 | -41.72324 | 173.05484 | 35184 ft | 459 kts | 201° |
| 2026-05-06 20:46 | -41.75399 | 173.04294 | 34402 ft | 461 kts | 201° |
| 2026-05-06 20:46 | -41.78459 | 173.03107 | 33607 ft | 463 kts | 200° |
| 2026-05-06 20:47 | -41.81557 | 173.01904 | 32848 ft | 463 kts | 200° |
| 2026-05-06 20:47 | -41.84633 | 173.00710 | 32066 ft | 463 kts | 200° |
| 2026-05-06 20:47 | -41.87739 | 172.99501 | 31307 ft | 464 kts | 200° |
| 2026-05-06 20:47 | -41.90826 | 172.98300 | 30804 ft | 458 kts | 200° |
| 2026-05-06 20:48 | -41.93885 | 172.97109 | 30208 ft | 455 kts | 200° |
| 2026-05-06 20:48 | -41.96915 | 172.95926 | 29600 ft | 451 kts | 200° |
| 2026-05-06 20:48 | -41.99888 | 172.94765 | 29064 ft | 446 kts | 200° |
| 2026-05-06 20:48 | -42.02861 | 172.93603 | 28509 ft | 441 kts | 200° |
| 2026-05-06 20:49 | -42.05791 | 172.92456 | 27960 ft | 436 kts | 201° |
| 2026-05-06 20:49 | -42.08692 | 172.91320 | 27408 ft | 432 kts | 201° |
| 2026-05-06 20:49 | -42.11533 | 172.90205 | 26865 ft | 428 kts | 201° |
| 2026-05-06 20:49 | -42.14396 | 172.89080 | 26333 ft | 425 kts | 201° |
| 2026-05-06 20:50 | -42.17222 | 172.87969 | 25794 ft | 422 kts | 201° |
| 2026-05-06 20:50 | -42.20035 | 172.86862 | 25244 ft | 419 kts | 201° |
| 2026-05-06 20:50 | -42.22799 | 172.85773 | 24696 ft | 417 kts | 201° |
| 2026-05-06 20:50 | -42.25586 | 172.84674 | 24177 ft | 414 kts | 201° |
| 2026-05-06 20:51 | -42.28355 | 172.83582 | 23657 ft | 411 kts | 201° |
| 2026-05-06 20:51 | -42.31097 | 172.82498 | 23042 ft | 408 kts | 201° |
| 2026-05-06 20:51 | -42.33816 | 172.81425 | 22543 ft | 404 kts | 201° |
| 2026-05-06 20:51 | -42.36471 | 172.80376 | 22037 ft | 399 kts | 201° |
| 2026-05-06 20:52 | -42.39145 | 172.79317 | 21498 ft | 397 kts | 201° |
| 2026-05-06 20:52 | -42.41799 | 172.78264 | 20973 ft | 394 kts | 201° |
| 2026-05-06 20:52 | -42.44394 | 172.77234 | 20458 ft | 391 kts | 201° |
| 2026-05-06 20:52 | -42.47008 | 172.76197 | 19940 ft | 388 kts | 201° |
| 2026-05-06 20:53 | -42.49599 | 172.75166 | 19411 ft | 386 kts | 200° |
| 2026-05-06 20:53 | -42.52181 | 172.74139 | 18846 ft | 386 kts | 200° |
| 2026-05-06 20:53 | -42.54723 | 172.73127 | 18372 ft | 383 kts | 200° |
| 2026-05-06 20:53 | -42.57292 | 172.72103 | 17818 ft | 381 kts | 200° |
| 2026-05-06 20:54 | -42.59828 | 172.71092 | 17314 ft | 378 kts | 200° |
| 2026-05-06 20:54 | -42.62359 | 172.70080 | 16790 ft | 377 kts | 200° |
| 2026-05-06 20:54 | -42.64839 | 172.69089 | 16285 ft | 374 kts | 199° |
| 2026-05-06 20:54 | -42.67329 | 172.68092 | 15774 ft | 372 kts | 199° |
| 2026-05-06 20:55 | -42.69822 | 172.67093 | 15262 ft | 370 kts | 199° |
| 2026-05-06 20:55 | -42.72295 | 172.66101 | 14764 ft | 368 kts | 199° |
| 2026-05-06 20:55 | -42.74718 | 172.65129 | 14298 ft | 366 kts | 198° |
| 2026-05-06 20:55 | -42.77167 | 172.64146 | 13761 ft | 365 kts | 198° |
| 2026-05-06 20:56 | -42.79601 | 172.63170 | 13281 ft | 361 kts | 198° |
| 2026-05-06 20:56 | -42.81975 | 172.62219 | 12799 ft | 359 kts | 198° |
| 2026-05-06 20:56 | -42.84359 | 172.61264 | 12315 ft | 356 kts | 199° |
| 2026-05-06 20:56 | -42.86735 | 172.60305 | 11843 ft | 354 kts | 199° |
| 2026-05-06 20:57 | -42.89091 | 172.59349 | 11375 ft | 352 kts | 199° |
| 2026-05-06 20:57 | -42.91443 | 172.58393 | 10898 ft | 350 kts | 199° |
| 2026-05-06 20:57 | -42.93745 | 172.57456 | 10464 ft | 348 kts | 200° |
| 2026-05-06 20:57 | -42.96025 | 172.56529 | 10322 ft | 335 kts | 200° |
| 2026-05-06 20:58 | -42.98218 | 172.55638 | 10203 ft | 323 kts | 200° |
| 2026-05-06 20:58 | -43.00357 | 172.54766 | 9945 ft | 316 kts | 200° |
| 2026-05-06 20:58 | -43.02441 | 172.53916 | 9774 ft | 308 kts | 200° |
| 2026-05-06 20:58 | -43.04501 | 172.53075 | 9437 ft | 308 kts | 200° |
| 2026-05-06 20:59 | -43.06533 | 172.52246 | 9071 ft | 307 kts | 201° |
| 2026-05-06 20:59 | -43.08588 | 172.51406 | 8703 ft | 307 kts | 201° |
| 2026-05-06 20:59 | -43.10631 | 172.50574 | 8332 ft | 303 kts | 202° |
| 2026-05-06 20:59 | -43.12625 | 172.49763 | 7973 ft | 300 kts | 202° |
| 2026-05-06 21:00 | -43.14631 | 172.48943 | 7611 ft | 299 kts | 202° |
| 2026-05-06 21:00 | -43.15306 | 172.48668 | 7481 ft | 298 kts | 203° |
| 2026-05-06 21:00 | -43.15966 | 172.48399 | 7368 ft | 298 kts | 203° |
| 2026-05-06 21:01 | -43.17526 | 172.47762 | 7079 ft | 297 kts | 204° |
| 2026-05-06 21:01 | -43.19487 | 172.46959 | 6715 ft | 296 kts | 204° |
| 2026-05-06 21:01 | -43.21464 | 172.46149 | 6351 ft | 294 kts | 205° |
| 2026-05-06 21:01 | -43.23403 | 172.45349 | 6087 ft | 294 kts | 204° |
| 2026-05-06 21:02 | -43.25371 | 172.44535 | 6009 ft | 290 kts | 205° |
| 2026-05-06 21:02 | -43.27265 | 172.43762 | 5945 ft | 277 kts | 204° |
| 2026-05-06 21:02 | -43.29077 | 172.43022 | 5841 ft | 266 kts | 205° |
| 2026-05-06 21:02 | -43.30815 | 172.42310 | 5741 ft | 254 kts | 205° |
| 2026-05-06 21:03 | -43.32452 | 172.41635 | 5629 ft | 243 kts | 206° |
| 2026-05-06 21:03 | -43.34053 | 172.40974 | 5519 ft | 232 kts | 206° |
| 2026-05-06 21:03 | -43.35580 | 172.40337 | 5271 ft | 230 kts | 207° |
| 2026-05-06 21:03 | -43.37108 | 172.39695 | 5014 ft | 228 kts | 206° |
| 2026-05-06 21:04 | -43.38591 | 172.39080 | 4934 ft | 213 kts | 206° |
| 2026-05-06 21:04 | -43.40009 | 172.38614 | 4801 ft | 207 kts | 194° |
| 2026-05-06 21:04 | -43.41428 | 172.38641 | 4689 ft | 198 kts | 183° |
| 2026-05-06 21:04 | -43.42753 | 172.38741 | 4563 ft | 189 kts | 185° |
| 2026-05-06 21:05 | -43.44066 | 172.38819 | 4307 ft | 188 kts | 185° |
| 2026-05-06 21:05 | -43.45377 | 172.38887 | 4068 ft | 186 kts | 184° |
| 2026-05-06 21:05 | -43.46652 | 172.38959 | 3995 ft | 183 kts | 184° |
| 2026-05-06 21:05 | -43.47940 | 172.39029 | 4005 ft | 188 kts | 184° |
| 2026-05-06 21:06 | -43.49235 | 172.39107 | 4001 ft | 186 kts | 184° |
| 2026-05-06 21:06 | -43.50526 | 172.39364 | 3863 ft | 189 kts | 165° |
| 2026-05-06 21:06 | -43.51694 | 172.40135 | 3622 ft | 189 kts | 144° |
| 2026-05-06 21:06 | -43.52729 | 172.41303 | 3204 ft | 199 kts | 136° |
| 2026-05-06 21:07 | -43.53740 | 172.42689 | 2700 ft | 207 kts | 119° |
| 2026-05-06 21:07 | -43.54099 | 172.44493 | 2158 ft | 194 kts | 74° |
| 2026-05-06 21:07 | -43.53396 | 172.45951 | 1498 ft | 185 kts | 32° |
| 2026-05-06 21:07 | -43.52426 | 172.47167 | 884 ft | 191 kts | 50° |
| 2026-05-06 21:08 | -43.51774 | 172.48681 | 629 ft | 177 kts | 63° |
| 2026-05-06 21:08 | -43.51253 | 172.50144 | 416 ft | 165 kts | 55° |
| 2026-05-06 21:08 | -43.50521 | 172.51266 | 267 ft | 152 kts | 44° |
| 2026-05-06 21:08 | -43.49775 | 172.52180 | 138 ft | 135 kts | 42° |
| 2026-05-06 21:09 | -43.49207 | 172.52843 | 119 ft | 68 kts | 41° |
| 2026-05-06 21:09 | -43.48976 | 172.53119 | 112 ft | 35 kts | 40° |
| 2026-05-06 21:09 | -43.48925 | 172.53237 | 111 ft | 12 kts | 98° |
| 2026-05-06 21:09 | -43.48975 | 172.53335 | 111 ft | 14 kts | 131° |
| 2026-05-06 21:10 | -43.49008 | 172.53414 | 109 ft | 8 kts | 94° |
| 2026-05-06 21:10 | -43.48977 | 172.53470 | 112 ft | 8 kts | 36° |
| 2026-05-06 21:10 | -43.48912 | 172.53534 | 109 ft | 15 kts | 34° |
| 2026-05-06 21:10 | -43.48824 | 172.53627 | 109 ft | 17 kts | 40° |
| 2026-05-06 21:11 | -43.48741 | 172.53723 | 109 ft | 13 kts | 40° |
| 2026-05-06 21:11 | -43.48727 | 172.53751 | 109 ft | 1 kts | 77° |
| 2026-05-06 21:11 | -43.48729 | 172.53776 | 109 ft | 4 kts | 107° |
| 2026-05-06 21:11 | -43.48743 | 172.53805 | 107 ft | 0 kts | 126° |
| 2026-05-06 21:12 | -43.48753 | 172.53822 | 109 ft | 4 kts | 128° |
| 2026-05-06 21:12 | -43.48760 | 172.53834 | 109 ft | 0 kts | 130° |